Time;durP1;ratioP1;P1;durP2;ratioP2;P2;SDS_P1;SDS_P2;PMS_P1;PMS_P2;Temp;Humidity;BMP_temperature;BMP_pressure;BME280_temperature;BME280_humidity;BME280_pressure;Samples;Min_cycle;Max_cycle;Signal;HPM_P1;HPM_P2
2023/08/21 00:03:31;;;;;;;4.90;1.40;;;16.40;99.90;;;;;;7269776;32;20207;-56
2023/08/21 00:07:33;;;;;;;10.88;1.73;;;16.30;99.90;;;;;;7265461;32;20127;-58
2023/08/21 00:11:35;;;;;;;8.07;1.70;;;16.30;99.90;;;;;;7278789;32;20647;-55
2023/08/21 00:15:38;;;;;;;3.85;1.40;;;16.30;99.90;;;;;;7272380;32;20665;-56
2023/08/21 00:19:41;;;;;;;5.75;1.75;;;16.30;99.90;;;;;;7269653;32;20462;-57
2023/08/21 00:23:42;;;;;;;7.05;2.00;;;16.30;99.90;;;;;;7275046;32;20104;-56
2023/08/21 00:27:44;;;;;;;4.80;1.67;;;16.30;99.90;;;;;;7265671;32;20179;-56
2023/08/21 00:31:46;;;;;;;7.82;1.75;;;16.20;99.90;;;;;;7276258;32;20234;-56
2023/08/21 00:35:47;;;;;;;7.72;2.15;;;16.20;99.90;;;;;;7269619;32;20516;-56
2023/08/21 00:39:49;;;;;;;7.32;1.80;;;16.30;99.90;;;;;;7272169;32;20138;-55
2023/08/21 00:43:51;;;;;;;4.53;2.10;;;16.30;99.90;;;;;;7270713;32;20128;-55
2023/08/21 00:47:53;;;;;;;4.12;1.90;;;16.30;99.90;;;;;;7276860;32;20126;-56
2023/08/21 00:51:55;;;;;;;8.45;2.30;;;16.20;99.90;;;;;;7273854;32;20154;-55
2023/08/21 00:55:56;;;;;;;7.78;1.90;;;16.10;99.90;;;;;;7216992;32;20195;-55
2023/08/21 01:00:00;;;;;;;5.03;2.00;;;16.20;99.90;;;;;;7215784;32;20175;-55
2023/08/21 01:04:03;;;;;;;4.15;1.90;;;16.10;99.90;;;;;;7277663;32;20599;-55
2023/08/21 01:08:18;;;;;;;5.35;1.92;;;16.20;99.90;;;;;;7274458;32;20629;-56
2023/08/21 01:12:33;;;;;;;6.03;2.25;;;16.20;99.90;;;;;;7275967;32;20104;-57
2023/08/21 01:16:37;;;;;;;9.52;2.78;;;16.10;99.90;;;;;;7271991;32;20117;-56
2023/08/21 01:20:40;;;;;;;5.07;2.20;;;16.20;99.90;;;;;;7282288;32;20153;-56
2023/08/21 01:24:42;;;;;;;4.60;2.25;;;16.30;99.90;;;;;;7277819;32;20193;-55
2023/08/21 01:28:44;;;;;;;5.10;2.20;;;16.30;99.90;;;;;;7279172;32;20297;-57
2023/08/21 01:32:56;;;;;;;4.80;2.33;;;16.30;99.90;;;;;;7277768;32;20128;-57
2023/08/21 01:36:59;;;;;;;6.57;2.28;;;16.30;99.90;;;;;;7280414;32;20371;-56
2023/08/21 01:41:02;;;;;;;5.82;1.90;;;16.30;99.90;;;;;;7280958;32;20122;-56
2023/08/21 01:45:04;;;;;;;7.00;2.22;;;16.30;99.90;;;;;;7276781;32;20187;-56
2023/08/21 01:49:06;;;;;;;6.20;1.95;;;16.40;99.90;;;;;;7255572;32;20464;-56
2023/08/21 01:53:07;;;;;;;6.50;1.92;;;16.30;99.90;;;;;;7201837;32;20615;-55
2023/08/21 01:57:09;;;;;;;6.78;2.53;;;16.40;99.90;;;;;;7246976;32;20090;-55
2023/08/21 02:01:11;;;;;;;6.20;2.47;;;16.40;99.90;;;;;;7277917;32;20108;-56
2023/08/21 02:05:13;;;;;;;8.90;2.12;;;16.50;99.90;;;;;;7275688;32;20773;-57
2023/08/21 02:09:15;;;;;;;6.40;2.17;;;16.50;99.90;;;;;;7280991;32;20404;-56
2023/08/21 02:13:18;;;;;;;5.55;2.25;;;16.60;99.90;;;;;;7279036;32;20255;-56
2023/08/21 02:17:20;;;;;;;6.95;2.15;;;16.60;99.90;;;;;;7273172;32;20105;-56
2023/08/21 02:21:22;;;;;;;11.15;2.53;;;16.60;99.90;;;;;;7275317;32;20132;-56
2023/08/21 02:25:23;;;;;;;5.50;1.90;;;16.60;99.90;;;;;;7278844;32;20237;-57
2023/08/21 02:29:25;;;;;;;6.07;2.03;;;16.50;99.90;;;;;;7273204;32;20199;-56
2023/08/21 02:33:27;;;;;;;3.70;1.80;;;16.30;99.90;;;;;;7277191;32;20455;-56
2023/08/21 02:37:28;;;;;;;4.68;1.73;;;16.30;99.90;;;;;;7276128;32;20195;-56
2023/08/21 02:41:30;;;;;;;5.40;1.75;;;16.20;99.90;;;;;;7279159;32;20088;-56
2023/08/21 02:45:32;;;;;;;4.50;1.70;;;16.20;99.90;;;;;;7279823;32;20479;-56
2023/08/21 02:49:33;;;;;;;6.40;1.77;;;16.10;99.90;;;;;;7265427;32;20190;-57
2023/08/21 02:53:35;;;;;;;5.40;1.80;;;16.00;99.90;;;;;;7222092;32;22342;-57
2023/08/21 02:57:37;;;;;;;5.00;1.90;;;16.00;99.90;;;;;;7224237;32;20214;-57
2023/08/21 03:01:39;;;;;;;6.90;1.80;;;15.90;99.90;;;;;;7278009;32;20587;-57
2023/08/21 03:05:40;;;;;;;6.68;1.95;;;15.90;99.90;;;;;;7280010;32;20443;-56
2023/08/21 03:09:42;;;;;;;3.45;1.60;;;15.90;99.90;;;;;;7280265;32;20123;-56
2023/08/21 03:13:44;;;;;;;4.40;1.42;;;15.90;99.90;;;;;;7242829;32;20170;-57
2023/08/21 03:17:46;;;;;;;5.10;1.80;;;15.90;99.90;;;;;;7279198;32;20174;-57
2023/08/21 03:21:48;;;;;;;5.22;1.92;;;15.80;99.90;;;;;;7275769;32;20242;-57
2023/08/21 03:25:52;;;;;;;3.80;1.67;;;15.80;99.90;;;;;;7272229;32;20565;-56
2023/08/21 03:29:54;;;;;;;8.05;1.75;;;15.70;99.90;;;;;;7275480;32;20126;-56
2023/08/21 03:33:56;;;;;;;5.30;2.03;;;15.80;99.90;;;;;;7278313;32;20753;-56
2023/08/21 03:37:58;;;;;;;7.85;2.10;;;15.70;99.90;;;;;;7278862;32;20248;-56
2023/08/21 03:41:59;;;;;;;4.72;1.73;;;15.60;99.90;;;;;;7277610;32;20162;-56
2023/08/21 03:46:01;;;;;;;7.28;1.80;;;15.60;99.90;;;;;;7272614;32;20165;-56
2023/08/21 03:50:03;;;;;;;4.87;1.80;;;15.50;99.90;;;;;;7269972;32;20108;-57
2023/08/21 03:54:05;;;;;;;4.20;1.70;;;15.50;99.90;;;;;;7278675;32;20115;-57
2023/08/21 03:58:07;;;;;;;8.05;2.03;;;15.60;99.90;;;;;;7256986;32;20202;-55
2023/08/21 04:02:08;;;;;;;5.47;1.85;;;15.50;99.90;;;;;;7254825;32;20135;-57
2023/08/21 04:06:10;;;;;;;4.30;1.50;;;15.50;99.90;;;;;;7254329;32;20226;-56
2023/08/21 04:10:12;;;;;;;7.57;2.15;;;15.50;99.90;;;;;;7256738;32;20486;-57
2023/08/21 04:14:13;;;;;;;4.35;1.98;;;15.50;99.90;;;;;;7257738;32;20123;-56
2023/08/21 04:18:15;;;;;;;3.22;1.95;;;15.50;99.90;;;;;;7243978;32;20104;-56
2023/08/21 04:22:31;;;;;;;3.67;2.10;;;15.50;99.90;;;;;;7255826;32;20764;-57
2023/08/21 04:26:33;;;;;;;5.47;1.92;;;15.50;99.90;;;;;;7257130;32;20104;-56
2023/08/21 04:30:34;;;;;;;7.82;2.20;;;15.50;99.90;;;;;;7254866;32;20256;-56
2023/08/21 04:34:36;;;;;;;6.37;2.87;;;15.60;99.90;;;;;;7255769;32;20119;-56
2023/08/21 04:38:38;;;;;;;5.60;2.70;;;15.70;99.90;;;;;;7255162;32;20266;-56
2023/08/21 04:42:40;;;;;;;7.70;2.58;;;15.90;99.90;;;;;;7255180;32;20186;-56
2023/08/21 04:46:41;;;;;;;7.43;2.22;;;16.00;99.90;;;;;;7252427;32;20494;-57
2023/08/21 04:50:43;;;;;;;5.97;2.40;;;16.10;99.90;;;;;;7257559;32;20323;-57
2023/08/21 04:54:45;;;;;;;11.77;2.60;;;16.10;99.90;;;;;;7263739;32;20535;-57
2023/08/21 04:58:48;;;;;;;7.72;2.55;;;16.10;99.90;;;;;;7259489;32;20206;-57
2023/08/21 05:02:49;;;;;;;6.90;2.62;;;16.10;99.90;;;;;;7259649;32;20241;-57
2023/08/21 05:06:51;;;;;;;5.75;2.22;;;16.30;99.90;;;;;;7251728;32;20195;-57
2023/08/21 05:10:59;;;;;;;8.25;2.90;;;16.30;99.90;;;;;;7262463;32;20149;-56
2023/08/21 05:15:01;;;;;;;5.65;2.72;;;16.50;99.90;;;;;;7244784;32;20583;-57
2023/08/21 05:19:03;;;;;;;8.80;2.58;;;16.60;99.90;;;;;;7253508;32;20697;-56
2023/08/21 05:23:05;;;;;;;8.93;2.75;;;17.00;99.90;;;;;;7259480;32;20226;-57
2023/08/21 05:27:07;;;;;;;10.98;2.70;;;17.20;99.90;;;;;;7258347;32;20124;-57
2023/08/21 05:31:08;;;;;;;9.25;3.10;;;17.30;99.90;;;;;;7256842;32;20202;-57
2023/08/21 05:35:10;;;;;;;12.40;2.58;;;17.40;99.90;;;;;;7242219;32;20248;-59
2023/08/21 05:39:12;;;;;;;5.80;2.40;;;17.40;99.90;;;;;;7261314;32;20088;-56
2023/08/21 05:43:16;;;;;;;5.40;2.67;;;17.40;99.90;;;;;;7272905;32;20803;-57
2023/08/21 05:47:17;;;;;;;7.43;3.25;;;17.40;99.90;;;;;;7272963;32;20247;-56
2023/08/21 05:51:19;;;;;;;7.43;2.58;;;17.60;99.90;;;;;;7259361;32;20163;-56
2023/08/21 05:55:21;;;;;;;10.70;6.53;;;17.70;99.90;;;;;;7279531;32;20178;-56
2023/08/21 05:59:30;;;;;;;6.05;2.17;;;17.80;99.90;;;;;;7179516;32;20127;-56
2023/08/21 06:03:32;;;;;;;5.70;1.87;;;17.90;99.90;;;;;;7260507;32;20147;-61
2023/08/21 06:07:33;;;;;;;8.45;3.95;;;18.10;99.90;;;;;;7276647;32;20151;-55
2023/08/21 06:11:35;;;;;;;5.32;1.70;;;18.40;99.90;;;;;;7274309;32;20529;-56
2023/08/21 06:15:37;;;;;;;7.47;1.45;;;18.50;99.90;;;;;;7268474;32;20208;-56
2023/08/21 06:19:38;;;;;;;9.98;2.15;;;18.60;99.90;;;;;;7256086;32;20285;-57
2023/08/21 06:23:40;;;;;;;8.90;1.80;;;18.80;99.90;;;;;;7260422;32;20180;-58
2023/08/21 06:27:42;;;;;;;5.07;1.40;;;19.00;99.90;;;;;;7256637;32;22134;-57
2023/08/21 06:31:59;;;;;;;4.87;1.35;;;19.10;99.90;;;;;;7256624;32;20146;-57
2023/08/21 06:36:01;;;;;;;7.50;1.67;;;19.30;99.90;;;;;;7257157;32;20630;-58
2023/08/21 06:40:03;;;;;;;4.35;1.30;;;19.30;99.90;;;;;;7253141;32;21376;-57
2023/08/21 06:44:05;;;;;;;3.72;1.40;;;19.30;99.90;;;;;;7255325;32;20100;-56
2023/08/21 06:48:06;;;;;;;4.03;1.50;;;19.30;99.90;;;;;;7256547;32;20183;-62
2023/08/21 06:52:08;;;;;;;7.70;1.65;;;19.40;99.90;;;;;;7245833;32;21007;-64
2023/08/21 06:56:10;;;;;;;4.97;1.60;;;19.40;99.90;;;;;;7253601;32;20112;-63
2023/08/21 07:00:12;;;;;;;4.95;1.70;;;19.40;99.90;;;;;;7257434;32;20393;-63
2023/08/21 07:04:14;;;;;;;7.10;1.60;;;19.60;99.90;;;;;;7254797;32;20222;-64
2023/08/21 07:08:16;;;;;;;5.25;1.50;;;19.60;99.90;;;;;;7240499;32;20097;-63
2023/08/21 07:12:18;;;;;;;9.93;1.58;;;19.70;99.90;;;;;;7252257;32;20303;-64
2023/08/21 07:16:19;;;;;;;3.35;1.23;;;19.70;99.90;;;;;;7240221;32;20207;-63
2023/08/21 07:20:22;;;;;;;5.05;1.80;;;19.80;99.90;;;;;;7252976;32;21149;-62
2023/08/21 07:24:23;;;;;;;7.20;1.52;;;19.90;99.90;;;;;;7255354;32;20127;-63
2023/08/21 07:28:25;;;;;;;7.62;1.67;;;20.10;99.90;;;;;;7270620;32;20206;-63
2023/08/21 07:32:27;;;;;;;4.90;1.67;;;20.40;99.90;;;;;;7278310;32;20137;-63
2023/08/21 07:36:31;;;;;;;4.80;1.50;;;20.30;99.90;;;;;;7265467;32;20251;-63
2023/08/21 07:40:33;;;;;;;5.03;1.50;;;20.40;99.90;;;;;;7277819;32;20117;-57
2023/08/21 07:44:35;;;;;;;5.60;1.73;;;20.50;99.90;;;;;;7276386;32;20122;-57
2023/08/21 07:48:37;;;;;;;4.97;1.40;;;20.80;99.90;;;;;;7276838;32;20254;-58
2023/08/21 07:52:39;;;;;;;5.07;1.70;;;21.00;99.90;;;;;;7277205;32;20214;-57
2023/08/21 07:56:41;;;;;;;4.57;1.48;;;21.20;99.90;;;;;;7276011;32;20109;-57
2023/08/21 08:00:43;;;;;;;2.45;1.25;;;21.40;99.90;;;;;;7275820;32;20105;-57
2023/08/21 08:04:45;;;;;;;9.60;2.12;;;21.50;99.90;;;;;;7277966;32;20503;-57
2023/08/21 08:08:47;;;;;;;8.15;1.73;;;21.70;99.90;;;;;;7276231;32;20818;-56
2023/08/21 08:12:49;;;;;;;6.65;1.70;;;21.90;99.90;;;;;;7275653;32;20584;-57
2023/08/21 08:16:50;;;;;;;2.97;1.50;;;21.90;99.90;;;;;;7277777;32;20326;-57
2023/08/21 08:20:52;;;;;;;9.75;2.37;;;21.90;99.90;;;;;;7269904;32;20104;-57
2023/08/21 08:24:54;;;;;;;9.45;2.40;;;21.80;99.90;;;;;;7275206;32;20277;-57
2023/08/21 08:28:56;;;;;;;4.70;2.05;;;21.90;99.90;;;;;;7276819;32;20101;-57
2023/08/21 08:32:58;;;;;;;7.25;1.65;;;22.20;99.90;;;;;;7275207;32;20101;-57
2023/08/21 08:37:00;;;;;;;5.60;1.80;;;22.20;99.90;;;;;;7276932;32;20131;-58
2023/08/21 08:41:04;;;;;;;5.15;2.37;;;22.60;99.90;;;;;;7273501;32;20115;-58
2023/08/21 08:45:06;;;;;;;5.97;2.10;;;23.20;99.90;;;;;;7272593;32;20679;-58
2023/08/21 08:49:08;;;;;;;4.18;1.75;;;23.50;99.90;;;;;;7264752;32;20096;-58
2023/08/21 08:53:12;;;;;;;9.20;2.20;;;24.10;99.90;;;;;;7275686;32;20431;-58
2023/08/21 08:57:18;;;;;;;6.97;2.20;;;25.20;99.90;;;;;;7275062;32;20155;-59
2023/08/21 09:01:19;;;;;;;10.18;2.05;;;26.10;99.90;;;;;;7270827;32;20150;-59
2023/08/21 09:05:21;;;;;;;4.62;2.20;;;26.40;99.90;;;;;;7265329;32;20503;-59
2023/08/21 09:09:23;;;;;;;6.82;2.10;;;27.00;99.90;;;;;;7265159;32;20112;-58
2023/08/21 09:13:25;;;;;;;5.40;1.85;;;27.90;99.90;;;;;;7262624;32;20404;-59
2023/08/21 09:17:28;;;;;;;4.00;1.70;;;29.60;99.90;;;;;;7259985;32;20287;-59
2023/08/21 09:21:30;;;;;;;3.62;1.70;;;30.40;99.90;;;;;;7271248;32;20206;-58
2023/08/21 09:25:38;;;;;;;6.10;1.80;;;31.30;99.90;;;;;;7274939;32;20109;-58
2023/08/21 09:29:41;;;;;;;4.37;2.03;;;31.40;99.90;;;;;;7273462;32;20210;-58
2023/08/21 09:33:43;;;;;;;5.78;2.00;;;30.30;99.90;;;;;;7271771;32;20897;-58
2023/08/21 09:37:46;;;;;;;4.87;1.40;;;29.10;99.90;;;;;;7277699;32;20500;-58
2023/08/21 09:41:58;;;;;;;6.60;1.70;;;29.20;99.90;;;;;;7274728;32;20100;-58
2023/08/21 09:45:59;;;;;;;6.35;2.00;;;29.70;99.90;;;;;;7280839;32;20119;-58
2023/08/21 09:50:01;;;;;;;3.40;2.00;;;29.90;99.90;;;;;;7278994;32;20370;-58
2023/08/21 09:54:04;;;;;;;3.78;1.98;;;30.40;99.90;;;;;;7281561;32;20591;-57
2023/08/21 09:58:06;;;;;;;5.18;2.00;;;30.50;99.90;;;;;;7273302;32;20215;-58
2023/08/21 10:02:09;;;;;;;5.15;2.50;;;30.60;99.90;;;;;;7277337;32;20107;-59
2023/08/21 10:06:12;;;;;;;7.28;1.95;;;30.30;99.90;;;;;;7271686;32;20223;-57
2023/08/21 10:10:15;;;;;;;5.70;1.80;;;30.40;99.90;;;;;;7273241;32;20164;-58
2023/08/21 10:14:18;;;;;;;6.80;2.20;;;30.40;99.90;;;;;;7275415;32;20155;-58
2023/08/21 10:18:25;;;;;;;5.72;1.80;;;30.40;99.90;;;;;;7277699;32;20246;-57
2023/08/21 10:22:45;;;;;;;5.70;2.30;;;30.30;99.90;;;;;;7265835;32;20221;-58
2023/08/21 10:26:47;;;;;;;6.28;1.90;;;30.10;99.90;;;;;;7273610;32;20234;-58
2023/08/21 10:30:49;;;;;;;5.50;1.55;;;30.10;99.90;;;;;;7279957;32;20151;-58
2023/08/21 10:34:53;;;;;;;4.90;1.77;;;30.40;99.90;;;;;;7279608;32;20963;-58
2023/08/21 10:39:01;;;;;;;6.85;1.67;;;29.90;99.90;;;;;;7277728;32;20136;-57
2023/08/21 10:43:03;;;;;;;5.82;1.73;;;29.90;99.90;;;;;;7279879;32;20550;-57
2023/08/21 10:47:23;;;;;;;6.35;2.03;;;30.00;99.90;;;;;;7279957;32;20101;-57
2023/08/21 10:51:29;;;;;;;6.60;2.00;;;29.50;99.90;;;;;;7274000;32;20132;-58
2023/08/21 10:55:31;;;;;;;4.85;1.83;;;29.60;99.90;;;;;;7253520;32;20192;-58
2023/08/21 10:59:33;;;;;;;4.53;1.77;;;29.50;99.90;;;;;;7256711;32;20136;-58
2023/08/21 11:03:39;;;;;;;6.40;2.00;;;29.40;99.90;;;;;;7291200;32;20146;-58
2023/08/21 11:07:44;;;;;;;7.93;2.00;;;29.10;99.90;;;;;;7292406;32;20673;-58
2023/08/21 11:11:46;;;;;;;7.85;2.17;;;28.60;99.90;;;;;;7287233;32;20216;-57
2023/08/21 11:15:48;;;;;;;7.82;2.20;;;28.10;99.90;;;;;;7285736;32;21482;-57
2023/08/21 11:19:51;;;;;;;8.90;2.17;;;28.20;99.90;;;;;;7296439;32;20100;-59
2023/08/21 11:23:53;;;;;;;5.47;2.10;;;28.10;99.90;;;;;;7293007;32;20104;-57
2023/08/21 11:27:55;;;;;;;6.10;1.83;;;28.20;99.90;;;;;;7294032;32;20215;-58
2023/08/21 11:31:56;;;;;;;9.40;2.42;;;28.20;99.90;;;;;;7296625;32;20562;-58
2023/08/21 11:35:59;;;;;;;5.90;2.28;;;27.90;99.90;;;;;;7288941;32;20223;-57
2023/08/21 11:40:07;;;;;;;6.40;2.17;;;28.10;99.90;;;;;;7291355;32;20936;-57
2023/08/21 11:44:09;;;;;;;10.23;6.72;;;27.60;99.90;;;;;;7286591;32;20211;-57
2023/08/21 11:48:11;;;;;;;6.55;2.25;;;27.70;99.90;;;;;;7285701;32;20174;-57
2023/08/21 11:52:13;;;;;;;5.62;2.00;;;27.50;99.90;;;;;;7289998;32;20136;-58
2023/08/21 11:56:17;;;;;;;6.32;1.70;;;27.40;99.90;;;;;;7290017;32;20116;-57
2023/08/21 12:00:25;;;;;;;3.72;1.87;;;27.70;99.90;;;;;;7288441;32;20104;-57
2023/08/21 12:04:27;;;;;;;4.40;1.90;;;27.80;99.90;;;;;;7289697;32;20453;-58
2023/08/21 12:08:29;;;;;;;6.10;1.80;;;28.00;99.90;;;;;;7297468;32;20119;-58
2023/08/21 12:12:30;;;;;;;4.55;1.83;;;27.80;99.90;;;;;;7291791;32;20219;-57
2023/08/21 12:16:32;;;;;;;9.30;1.95;;;28.00;99.90;;;;;;7290183;32;20116;-57
2023/08/21 12:20:34;;;;;;;4.30;2.00;;;28.10;99.90;;;;;;7285117;32;20115;-58
2023/08/21 12:24:38;;;;;;;8.95;2.03;;;28.10;99.90;;;;;;7291462;32;20213;-57
2023/08/21 12:28:40;;;;;;;6.18;3.12;;;27.80;99.90;;;;;;7293463;32;20104;-57
2023/08/21 12:32:42;;;;;;;6.97;2.12;;;28.00;99.90;;;;;;7290087;32;20215;-57
2023/08/21 12:36:44;;;;;;;8.38;1.75;;;28.00;99.90;;;;;;7292256;32;20174;-56
2023/08/21 12:40:46;;;;;;;5.00;2.00;;;27.80;99.90;;;;;;7292441;32;20326;-58
2023/08/21 12:44:47;;;;;;;6.97;1.77;;;27.80;99.90;;;;;;7290984;32;20107;-57
2023/08/21 12:48:49;;;;;;;6.60;1.70;;;27.30;99.90;;;;;;7290802;32;20729;-58
2023/08/21 12:52:51;;;;;;;3.00;1.52;;;27.30;99.90;;;;;;7293704;32;20260;-56
2023/08/21 12:56:53;;;;;;;6.32;2.12;;;28.00;99.90;;;;;;7289694;32;20163;-56
2023/08/21 13:00:55;;;;;;;5.22;2.12;;;28.40;99.90;;;;;;7291879;32;20100;-58
2023/08/21 13:04:57;;;;;;;3.35;1.58;;;28.40;99.90;;;;;;7290251;32;20139;-59
2023/08/21 13:08:59;;;;;;;4.10;1.70;;;28.40;99.90;;;;;;7278210;32;20182;-58
2023/08/21 13:13:00;;;;;;;5.90;1.65;;;28.60;99.90;;;;;;7295437;32;20104;-55
2023/08/21 13:17:02;;;;;;;5.65;1.60;;;28.70;99.90;;;;;;7290563;32;21318;-57
2023/08/21 13:21:04;;;;;;;7.07;1.70;;;28.50;99.90;;;;;;7298739;32;20498;-58
2023/08/21 13:25:06;;;;;;;6.18;1.48;;;28.50;99.90;;;;;;7301741;32;20253;-57
2023/08/21 13:29:08;;;;;;;6.18;1.80;;;28.10;99.90;;;;;;7300478;32;20423;-57
2023/08/21 13:33:10;;;;;;;5.07;1.60;;;27.70;99.90;;;;;;7295270;32;20129;-57
2023/08/21 13:37:11;;;;;;;6.57;1.95;;;27.70;99.90;;;;;;7288855;32;20259;-57
2023/08/21 13:41:13;;;;;;;3.28;1.30;;;27.70;99.90;;;;;;7294725;32;20100;-57
2023/08/21 13:45:16;;;;;;;4.95;1.85;;;27.60;99.90;;;;;;7288801;32;20100;-58
2023/08/21 13:49:18;;;;;;;3.20;1.25;;;27.70;99.90;;;;;;7299183;32;20104;-58
2023/08/21 13:53:20;;;;;;;5.78;1.30;;;27.80;99.90;;;;;;7295472;32;20132;-58
2023/08/21 13:57:22;;;;;;;6.60;1.35;;;28.00;99.90;;;;;;7280919;32;20108;-57
2023/08/21 14:01:23;;;;;;;6.90;1.77;;;28.40;99.90;;;;;;7232641;32;20115;-57
2023/08/21 14:05:27;;;;;;;4.85;1.62;;;28.90;99.90;;;;;;7295929;32;20126;-56
2023/08/21 14:09:29;;;;;;;5.72;1.52;;;29.40;99.90;;;;;;7294892;32;20138;-57
2023/08/21 14:13:30;;;;;;;5.80;1.35;;;29.90;99.90;;;;;;7295723;32;20100;-57
2023/08/21 14:17:32;;;;;;;4.50;1.70;;;30.20;99.90;;;;;;7300172;32;20596;-56
2023/08/21 14:21:34;;;;;;;5.35;1.40;;;30.10;99.90;;;;;;7298823;32;20103;-56
2023/08/21 14:25:37;;;;;;;6.37;1.40;;;30.00;99.90;;;;;;7296289;32;20127;-57
2023/08/21 14:29:39;;;;;;;5.05;1.73;;;30.00;99.90;;;;;;7277769;32;20226;-57
2023/08/21 14:33:40;;;;;;;5.43;1.40;;;29.50;99.90;;;;;;7237847;32;20126;-56
2023/08/21 14:37:42;;;;;;;5.93;1.70;;;29.30;99.90;;;;;;7298965;32;20766;-57
2023/08/21 14:41:44;;;;;;;7.43;1.83;;;29.40;99.90;;;;;;7293683;32;20232;-57
2023/08/21 14:45:46;;;;;;;6.50;1.27;;;29.10;99.90;;;;;;7296067;32;20237;-56
2023/08/21 14:49:49;;;;;;;6.18;1.50;;;29.40;99.90;;;;;;7291681;32;20199;-57
2023/08/21 14:53:51;;;;;;;5.12;1.48;;;29.40;99.90;;;;;;7290038;32;20408;-56
2023/08/21 14:57:53;;;;;;;4.70;1.15;;;29.20;99.90;;;;;;7295925;32;20234;-56
2023/08/21 15:01:55;;;;;;;3.40;1.25;;;28.90;99.90;;;;;;7294686;32;20122;-56
2023/08/21 15:05:57;;;;;;;6.12;1.80;;;28.70;99.90;;;;;;7293876;32;20198;-57
2023/08/21 15:09:58;;;;;;;5.22;1.70;;;28.80;99.90;;;;;;7293734;32;20186;-57
2023/08/21 15:14:08;;;;;;;5.30;1.70;;;28.30;99.90;;;;;;7302664;32;20102;-56
2023/08/21 15:18:10;;;;;;;5.10;1.60;;;28.20;99.90;;;;;;7298368;32;20127;-56
2023/08/21 15:22:12;;;;;;;8.00;1.60;;;27.90;99.90;;;;;;7303352;32;20166;-56
2023/08/21 15:26:14;;;;;;;8.02;2.10;;;27.60;99.90;;;;;;7295154;32;20505;-57
2023/08/21 15:30:17;;;;;;;7.10;1.87;;;27.30;99.90;;;;;;7296585;32;20552;-56
2023/08/21 15:34:18;;;;;;;5.00;1.67;;;27.20;99.90;;;;;;7300661;32;20202;-56
2023/08/21 15:38:20;;;;;;;6.75;2.15;;;27.20;99.90;;;;;;7302600;32;20123;-56
2023/08/21 15:42:22;;;;;;;4.45;1.80;;;27.00;99.90;;;;;;7300400;32;20112;-56
2023/08/21 15:46:24;;;;;;;5.37;2.00;;;26.60;99.90;;;;;;7294455;32;20105;-57
2023/08/21 15:50:25;;;;;;;5.03;1.90;;;26.40;99.90;;;;;;7300092;32;20193;-56
2023/08/21 15:54:32;;;;;;;4.60;1.80;;;26.50;99.90;;;;;;7291985;32;20501;-56
2023/08/21 15:58:33;;;;;;;6.22;1.77;;;26.30;99.90;;;;;;7236361;32;20128;-56
2023/08/21 16:02:35;;;;;;;8.43;2.50;;;26.10;99.90;;;;;;7291186;32;20206;-57
2023/08/21 16:06:38;;;;;;;3.83;1.92;;;26.00;99.90;;;;;;7291249;32;20188;-57
2023/08/21 16:10:40;;;;;;;5.20;2.20;;;26.10;99.90;;;;;;7288022;32;20165;-56
2023/08/21 16:14:41;;;;;;;5.75;2.47;;;26.00;99.90;;;;;;7290899;32;20127;-55
2023/08/21 16:18:43;;;;;;;5.93;2.33;;;25.90;99.90;;;;;;7283447;32;20195;-56
2023/08/21 16:22:45;;;;;;;5.22;2.55;;;25.90;99.90;;;;;;7289020;32;20211;-56
2023/08/21 16:26:47;;;;;;;7.55;2.50;;;25.70;99.90;;;;;;7292381;32;20505;-57
2023/08/21 16:30:48;;;;;;;27.33;20.45;;;25.50;99.90;;;;;;7290603;32;20135;-56
2023/08/21 16:34:50;;;;;;;5.07;2.22;;;25.50;99.90;;;;;;7292185;32;20558;-57
2023/08/21 16:38:52;;;;;;;6.97;2.35;;;25.50;99.90;;;;;;7294974;32;20459;-57
2023/08/21 16:42:54;;;;;;;5.00;2.30;;;25.40;99.90;;;;;;7293201;32;20217;-56
2023/08/21 16:46:55;;;;;;;5.90;2.15;;;25.30;99.90;;;;;;7289812;32;20151;-56
2023/08/21 16:50:57;;;;;;;7.03;2.55;;;25.20;99.90;;;;;;7291555;32;20107;-56
2023/08/21 16:55:00;;;;;;;8.55;2.85;;;25.20;99.90;;;;;;7292058;32;20103;-56
2023/08/21 16:59:01;;;;;;;5.93;2.45;;;25.20;99.90;;;;;;7299355;32;20187;-56
2023/08/21 17:03:04;;;;;;;8.57;3.00;;;25.10;99.90;;;;;;7300521;32;20203;-56
2023/08/21 17:07:05;;;;;;;5.35;2.58;;;25.10;99.90;;;;;;7301754;32;20101;-55
2023/08/21 17:11:07;;;;;;;6.15;2.95;;;25.10;99.90;;;;;;7293778;32;20097;-58
2023/08/21 17:15:09;;;;;;;7.25;2.75;;;25.10;99.90;;;;;;7295607;32;20127;-58
2023/08/21 17:19:11;;;;;;;6.03;2.58;;;24.90;99.90;;;;;;7296378;32;20109;-57
2023/08/21 17:23:12;;;;;;;7.50;2.37;;;24.70;99.90;;;;;;7294126;32;20108;-57
2023/08/21 17:27:14;;;;;;;4.47;2.45;;;24.60;99.90;;;;;;7294077;32;20209;-57
2023/08/21 17:31:16;;;;;;;4.72;2.40;;;24.60;99.90;;;;;;7293825;32;20135;-56
2023/08/21 17:35:18;;;;;;;7.28;2.50;;;24.60;99.90;;;;;;7294212;32;20113;-57
2023/08/21 17:39:20;;;;;;;7.75;2.58;;;24.50;99.90;;;;;;7288583;32;20300;-57
2023/08/21 17:43:21;;;;;;;5.25;2.37;;;24.30;99.90;;;;;;7288571;32;20128;-57
2023/08/21 17:47:23;;;;;;;9.00;3.22;;;24.20;99.90;;;;;;7287581;32;20673;-57
2023/08/21 17:51:25;;;;;;;6.80;4.28;;;24.00;99.90;;;;;;7294515;32;20186;-57
2023/08/21 17:55:27;;;;;;;9.90;3.75;;;23.80;99.90;;;;;;7294948;32;20187;-57
2023/08/21 17:59:29;;;;;;;8.25;3.30;;;23.80;99.90;;;;;;7289291;32;20508;-57
2023/08/21 18:03:30;;;;;;;6.53;3.40;;;23.70;99.90;;;;;;7284396;32;20138;-56
2023/08/21 18:07:33;;;;;;;5.95;3.40;;;23.50;99.90;;;;;;7292281;32;20116;-56
2023/08/21 18:11:35;;;;;;;8.38;3.53;;;23.20;99.90;;;;;;7283678;32;20104;-57
2023/08/21 18:15:37;;;;;;;6.28;3.28;;;23.00;99.90;;;;;;7288328;32;20154;-57
2023/08/21 18:19:42;;;;;;;7.07;3.42;;;22.80;99.90;;;;;;7294385;32;21131;-56
2023/08/21 18:23:48;;;;;;;7.00;3.47;;;22.70;99.90;;;;;;7292180;32;20250;-56
2023/08/21 18:27:50;;;;;;;9.13;3.60;;;22.40;99.90;;;;;;7292752;32;20229;-56
2023/08/21 18:31:51;;;;;;;7.93;4.22;;;22.10;99.90;;;;;;7294524;32;20124;-56
2023/08/21 18:35:54;;;;;;;9.70;3.75;;;21.80;99.90;;;;;;7288371;32;20104;-56
2023/08/21 18:39:55;;;;;;;6.43;3.83;;;21.70;99.90;;;;;;7293570;32;20100;-57
2023/08/21 18:43:57;;;;;;;10.25;4.18;;;21.50;99.90;;;;;;7293827;32;20111;-56
2023/08/21 18:47:59;;;;;;;9.00;3.67;;;21.30;99.90;;;;;;7293199;32;20124;-56
2023/08/21 18:52:01;;;;;;;6.78;4.10;;;21.20;99.90;;;;;;7295337;32;20191;-56
2023/08/21 18:56:04;;;;;;;7.30;4.00;;;21.00;99.90;;;;;;7291912;32;20246;-56
2023/08/21 19:00:11;;;;;;;6.25;3.62;;;20.90;99.90;;;;;;7287181;32;20111;-56
2023/08/21 19:04:13;;;;;;;7.60;3.60;;;20.70;99.90;;;;;;7292452;32;20610;-56
2023/08/21 19:08:15;;;;;;;6.12;4.07;;;20.60;99.90;;;;;;7289282;32;20627;-56
2023/08/21 19:12:16;;;;;;;8.82;4.60;;;20.50;99.90;;;;;;7289172;32;20222;-56
2023/08/21 19:16:18;;;;;;;12.80;4.40;;;20.30;99.90;;;;;;7288980;32;20190;-56
2023/08/21 19:20:20;;;;;;;11.32;6.05;;;20.00;99.90;;;;;;7287406;32;20245;-55
2023/08/21 19:24:22;;;;;;;18.50;6.55;;;19.90;99.90;;;;;;7295499;32;20179;-56
2023/08/21 19:28:23;;;;;;;13.70;5.72;;;19.90;99.90;;;;;;7295630;32;20262;-57
2023/08/21 19:32:25;;;;;;;10.85;5.20;;;19.70;99.90;;;;;;7295451;32;20218;-56
2023/08/21 19:36:27;;;;;;;8.15;5.18;;;19.60;99.90;;;;;;7292890;32;20219;-56
2023/08/21 19:40:37;;;;;;;9.65;6.10;;;19.50;99.90;;;;;;7292044;32;20134;-57
2023/08/21 19:44:39;;;;;;;13.23;5.70;;;19.40;99.90;;;;;;7293274;32;20261;-57
2023/08/21 19:48:40;;;;;;;9.30;5.57;;;19.30;99.90;;;;;;7289973;32;20096;-56
2023/08/21 19:52:44;;;;;;;12.60;5.75;;;19.20;99.90;;;;;;7293428;32;20122;-57
2023/08/21 19:56:46;;;;;;;8.82;4.85;;;19.10;99.90;;;;;;7291195;32;20194;-57
2023/08/21 20:00:48;;;;;;;13.75;5.50;;;19.00;99.90;;;;;;7289364;32;20127;-57
2023/08/21 20:04:51;;;;;;;11.50;5.85;;;18.90;99.90;;;;;;7294466;32;20178;-57
2023/08/21 20:08:53;;;;;;;9.82;5.30;;;18.80;99.90;;;;;;7290019;32;20191;-56
2023/08/21 20:12:55;;;;;;;9.80;5.05;;;18.70;99.90;;;;;;7295248;32;20162;-57
2023/08/21 20:16:57;;;;;;;9.00;5.15;;;18.60;99.90;;;;;;7287466;32;20742;-56
2023/08/21 20:20:58;;;;;;;7.72;5.10;;;18.60;99.90;;;;;;7275842;32;20772;-56
2023/08/21 20:25:00;;;;;;;9.20;4.93;;;18.50;99.90;;;;;;7286330;32;20292;-56
2023/08/21 20:29:02;;;;;;;12.57;5.40;;;18.50;99.90;;;;;;7288195;32;20800;-57
2023/08/21 20:33:04;;;;;;;8.32;4.87;;;18.40;99.90;;;;;;7292100;32;20643;-57
2023/08/21 20:37:06;;;;;;;5.95;4.82;;;18.30;99.90;;;;;;7290605;32;20761;-56
2023/08/21 20:41:08;;;;;;;10.30;5.70;;;18.30;99.90;;;;;;7277698;32;20120;-57
2023/08/21 20:45:10;;;;;;;11.95;5.10;;;18.10;99.90;;;;;;7293008;32;20100;-57
2023/08/21 20:49:12;;;;;;;7.28;4.62;;;18.10;99.90;;;;;;7294809;32;20716;-56
2023/08/21 20:53:13;;;;;;;10.00;5.00;;;18.00;99.90;;;;;;7291082;32;20111;-56
2023/08/21 20:57:15;;;;;;;9.20;4.95;;;17.90;99.90;;;;;;7291053;32;20191;-56
2023/08/21 21:01:17;;;;;;;9.35;5.03;;;17.80;99.90;;;;;;7293845;32;20779;-56